sensor_id;sensor_type;location;lat;lon;timestamp;P1;durP1;ratioP1;P2;durP2;ratioP2
4933;SDS011;2482;49.154;8.254;2023-02-28T00:01:32;2.20;;;2.00;;
4933;SDS011;2482;49.154;8.254;2023-02-28T00:03:59;2.60;;;2.33;;
4933;SDS011;2482;49.154;8.254;2023-02-28T00:06:26;2.57;;;2.33;;
4933;SDS011;2482;49.154;8.254;2023-02-28T00:08:54;2.27;;;2.07;;
4933;SDS011;2482;49.154;8.254;2023-02-28T00:11:22;2.40;;;2.10;;
4933;SDS011;2482;49.154;8.254;2023-02-28T00:13:49;2.57;;;2.30;;
4933;SDS011;2482;49.154;8.254;2023-02-28T00:16:19;3.70;;;2.13;;
4933;SDS011;2482;49.154;8.254;2023-02-28T00:18:48;2.23;;;2.03;;
4933;SDS011;2482;49.154;8.254;2023-02-28T00:21:16;2.30;;;1.90;;
4933;SDS011;2482;49.154;8.254;2023-02-28T00:23:44;2.57;;;2.37;;
4933;SDS011;2482;49.154;8.254;2023-02-28T00:26:11;2.60;;;2.40;;
4933;SDS011;2482;49.154;8.254;2023-02-28T00:28:38;2.67;;;2.10;;
4933;SDS011;2482;49.154;8.254;2023-02-28T00:31:05;2.27;;;2.13;;
4933;SDS011;2482;49.154;8.254;2023-02-28T00:33:32;2.47;;;1.97;;
4933;SDS011;2482;49.154;8.254;2023-02-28T00:36:06;3.23;;;2.47;;
4933;SDS011;2482;49.154;8.254;2023-02-28T00:38:36;3.03;;;2.73;;
4933;SDS011;2482;49.154;8.254;2023-02-28T00:41:04;1.70;;;1.60;;
4933;SDS011;2482;49.154;8.254;2023-02-28T00:43:33;2.97;;;2.30;;
4933;SDS011;2482;49.154;8.254;2023-02-28T00:46:03;4.63;;;2.43;;
4933;SDS011;2482;49.154;8.254;2023-02-28T00:48:31;2.60;;;2.30;;
4933;SDS011;2482;49.154;8.254;2023-02-28T00:50:59;3.33;;;2.23;;
4933;SDS011;2482;49.154;8.254;2023-02-28T00:53:26;3.20;;;2.10;;
4933;SDS011;2482;49.154;8.254;2023-02-28T00:55:53;3.00;;;1.80;;
4933;SDS011;2482;49.154;8.254;2023-02-28T00:58:20;3.40;;;2.70;;
4933;SDS011;2482;49.154;8.254;2023-02-28T01:00:47;3.90;;;2.37;;
4933;SDS011;2482;49.154;8.254;2023-02-28T01:03:16;3.07;;;2.20;;
4933;SDS011;2482;49.154;8.254;2023-02-28T01:05:45;2.43;;;2.33;;
4933;SDS011;2482;49.154;8.254;2023-02-28T01:08:13;1.90;;;1.80;;
4933;SDS011;2482;49.154;8.254;2023-02-28T01:10:41;2.70;;;2.50;;
4933;SDS011;2482;49.154;8.254;2023-02-28T01:13:08;3.10;;;2.33;;
4933;SDS011;2482;49.154;8.254;2023-02-28T01:15:36;2.80;;;2.10;;
4933;SDS011;2482;49.154;8.254;2023-02-28T01:18:16;2.53;;;2.23;;
4933;SDS011;2482;49.154;8.254;2023-02-28T01:20:44;2.40;;;2.07;;
4933;SDS011;2482;49.154;8.254;2023-02-28T01:23:12;2.50;;;2.10;;
4933;SDS011;2482;49.154;8.254;2023-02-28T01:25:39;1.90;;;1.80;;
4933;SDS011;2482;49.154;8.254;2023-02-28T01:28:06;2.40;;;1.93;;
4933;SDS011;2482;49.154;8.254;2023-02-28T01:30:33;2.23;;;1.67;;
4933;SDS011;2482;49.154;8.254;2023-02-28T01:33:02;3.00;;;1.93;;
4933;SDS011;2482;49.154;8.254;2023-02-28T01:35:31;3.13;;;1.67;;
4933;SDS011;2482;49.154;8.254;2023-02-28T01:38:00;2.10;;;1.90;;
4933;SDS011;2482;49.154;8.254;2023-02-28T01:40:45;1.80;;;1.70;;
4933;SDS011;2482;49.154;8.254;2023-02-28T01:43:20;2.87;;;1.87;;
4933;SDS011;2482;49.154;8.254;2023-02-28T01:45:54;1.60;;;1.50;;
4933;SDS011;2482;49.154;8.254;2023-02-28T01:48:26;2.00;;;1.70;;
4933;SDS011;2482;49.154;8.254;2023-02-28T01:51:03;2.00;;;1.90;;
4933;SDS011;2482;49.154;8.254;2023-02-28T01:53:42;2.00;;;1.80;;
4933;SDS011;2482;49.154;8.254;2023-02-28T01:56:19;2.20;;;2.00;;
4933;SDS011;2482;49.154;8.254;2023-02-28T01:58:51;1.70;;;1.57;;
4933;SDS011;2482;49.154;8.254;2023-02-28T02:01:22;2.70;;;2.10;;
4933;SDS011;2482;49.154;8.254;2023-02-28T02:03:54;1.87;;;1.50;;
4933;SDS011;2482;49.154;8.254;2023-02-28T02:06:39;1.87;;;1.57;;
4933;SDS011;2482;49.154;8.254;2023-02-28T02:09:11;2.20;;;1.70;;
4933;SDS011;2482;49.154;8.254;2023-02-28T02:11:39;3.20;;;1.90;;
4933;SDS011;2482;49.154;8.254;2023-02-28T02:14:25;2.00;;;1.80;;
4933;SDS011;2482;49.154;8.254;2023-02-28T02:17:18;3.23;;;1.73;;
4933;SDS011;2482;49.154;8.254;2023-02-28T02:32:09;3.53;;;2.07;;
4933;SDS011;2482;49.154;8.254;2023-02-28T02:34:52;4.23;;;2.20;;
4933;SDS011;2482;49.154;8.254;2023-02-28T02:37:50;2.93;;;1.93;;
4933;SDS011;2482;49.154;8.254;2023-02-28T02:40:43;2.20;;;2.00;;
4933;SDS011;2482;49.154;8.254;2023-02-28T02:46:45;1.60;;;1.50;;
4933;SDS011;2482;49.154;8.254;2023-02-28T02:49:21;4.40;;;2.17;;
4933;SDS011;2482;49.154;8.254;2023-02-28T02:51:54;2.80;;;2.33;;
4933;SDS011;2482;49.154;8.254;2023-02-28T02:54:25;3.10;;;1.80;;
4933;SDS011;2482;49.154;8.254;2023-02-28T02:56:58;2.20;;;1.97;;
4933;SDS011;2482;49.154;8.254;2023-02-28T02:59:30;1.83;;;1.73;;
4933;SDS011;2482;49.154;8.254;2023-02-28T03:01:59;2.30;;;2.20;;
4933;SDS011;2482;49.154;8.254;2023-02-28T03:04:32;3.37;;;2.20;;
4933;SDS011;2482;49.154;8.254;2023-02-28T03:07:06;2.00;;;1.80;;
4933;SDS011;2482;49.154;8.254;2023-02-28T03:09:34;3.03;;;2.83;;
4933;SDS011;2482;49.154;8.254;2023-02-28T03:12:04;2.63;;;2.20;;
4933;SDS011;2482;49.154;8.254;2023-02-28T03:17:46;2.70;;;2.50;;
4933;SDS011;2482;49.154;8.254;2023-02-28T03:21:43;3.33;;;3.00;;
4933;SDS011;2482;49.154;8.254;2023-02-28T03:27:11;2.60;;;2.40;;
4933;SDS011;2482;49.154;8.254;2023-02-28T03:30:17;2.43;;;2.23;;
4933;SDS011;2482;49.154;8.254;2023-02-28T03:32:57;4.33;;;2.50;;
4933;SDS011;2482;49.154;8.254;2023-02-28T03:35:34;2.90;;;2.60;;
4933;SDS011;2482;49.154;8.254;2023-02-28T03:41:20;4.53;;;2.80;;
4933;SDS011;2482;49.154;8.254;2023-02-28T03:46:53;2.50;;;2.30;;
4933;SDS011;2482;49.154;8.254;2023-02-28T03:49:54;3.20;;;2.50;;
4933;SDS011;2482;49.154;8.254;2023-02-28T03:52:31;3.93;;;2.73;;
4933;SDS011;2482;49.154;8.254;2023-02-28T03:55:02;3.80;;;2.57;;
4933;SDS011;2482;49.154;8.254;2023-02-28T04:00:31;4.03;;;2.80;;
4933;SDS011;2482;49.154;8.254;2023-02-28T04:03:04;4.77;;;3.10;;
4933;SDS011;2482;49.154;8.254;2023-02-28T04:05:32;5.20;;;3.53;;
4933;SDS011;2482;49.154;8.254;2023-02-28T04:08:15;5.97;;;2.90;;
4933;SDS011;2482;49.154;8.254;2023-02-28T04:10:42;3.70;;;2.93;;
4933;SDS011;2482;49.154;8.254;2023-02-28T04:13:17;3.33;;;3.00;;
4933;SDS011;2482;49.154;8.254;2023-02-28T04:15:44;3.23;;;2.90;;
4933;SDS011;2482;49.154;8.254;2023-02-28T04:18:11;3.00;;;2.70;;
4933;SDS011;2482;49.154;8.254;2023-02-28T04:20:38;3.03;;;2.83;;
4933;SDS011;2482;49.154;8.254;2023-02-28T04:23:05;4.80;;;3.40;;
4933;SDS011;2482;49.154;8.254;2023-02-28T04:25:31;5.53;;;3.60;;
4933;SDS011;2482;49.154;8.254;2023-02-28T04:27:59;3.10;;;2.80;;
4933;SDS011;2482;49.154;8.254;2023-02-28T04:30:26;4.37;;;2.90;;
4933;SDS011;2482;49.154;8.254;2023-02-28T04:32:53;3.90;;;3.40;;
4933;SDS011;2482;49.154;8.254;2023-02-28T04:35:20;3.80;;;2.83;;
4933;SDS011;2482;49.154;8.254;2023-02-28T04:37:47;4.10;;;3.50;;
4933;SDS011;2482;49.154;8.254;2023-02-28T04:40:14;4.17;;;3.37;;
4933;SDS011;2482;49.154;8.254;2023-02-28T04:42:41;6.20;;;3.17;;
4933;SDS011;2482;49.154;8.254;2023-02-28T04:45:08;4.47;;;3.20;;
4933;SDS011;2482;49.154;8.254;2023-02-28T04:47:36;3.33;;;3.03;;
4933;SDS011;2482;49.154;8.254;2023-02-28T04:50:03;4.97;;;3.37;;
4933;SDS011;2482;49.154;8.254;2023-02-28T04:52:31;4.17;;;3.17;;
4933;SDS011;2482;49.154;8.254;2023-02-28T04:54:58;3.23;;;2.90;;
4933;SDS011;2482;49.154;8.254;2023-02-28T04:57:25;3.90;;;3.50;;
4933;SDS011;2482;49.154;8.254;2023-02-28T04:59:52;5.30;;;3.37;;
4933;SDS011;2482;49.154;8.254;2023-02-28T05:02:19;3.70;;;3.20;;
4933;SDS011;2482;49.154;8.254;2023-02-28T05:04:47;3.67;;;3.00;;
4933;SDS011;2482;49.154;8.254;2023-02-28T05:07:15;4.30;;;3.40;;
4933;SDS011;2482;49.154;8.254;2023-02-28T05:09:42;4.50;;;3.57;;
4933;SDS011;2482;49.154;8.254;2023-02-28T05:12:09;3.30;;;3.00;;
4933;SDS011;2482;49.154;8.254;2023-02-28T05:14:36;4.20;;;3.77;;
4933;SDS011;2482;49.154;8.254;2023-02-28T05:17:03;7.97;;;3.50;;
4933;SDS011;2482;49.154;8.254;2023-02-28T05:19:30;5.30;;;3.40;;
4933;SDS011;2482;49.154;8.254;2023-02-28T05:21:57;4.27;;;3.70;;
4933;SDS011;2482;49.154;8.254;2023-02-28T05:24:24;4.43;;;3.60;;
4933;SDS011;2482;49.154;8.254;2023-02-28T05:26:52;4.13;;;3.57;;
4933;SDS011;2482;49.154;8.254;2023-02-28T05:29:21;4.23;;;3.83;;
4933;SDS011;2482;49.154;8.254;2023-02-28T05:31:48;6.37;;;4.00;;
4933;SDS011;2482;49.154;8.254;2023-02-28T05:34:15;4.67;;;3.90;;
4933;SDS011;2482;49.154;8.254;2023-02-28T05:36:42;4.03;;;3.67;;
4933;SDS011;2482;49.154;8.254;2023-02-28T05:39:09;4.90;;;4.00;;
4933;SDS011;2482;49.154;8.254;2023-02-28T05:41:40;4.00;;;3.43;;
4933;SDS011;2482;49.154;8.254;2023-02-28T05:44:08;6.63;;;4.03;;
4933;SDS011;2482;49.154;8.254;2023-02-28T05:46:35;5.47;;;4.13;;
4933;SDS011;2482;49.154;8.254;2023-02-28T05:49:02;4.53;;;3.70;;
4933;SDS011;2482;49.154;8.254;2023-02-28T05:51:30;5.30;;;3.77;;
4933;SDS011;2482;49.154;8.254;2023-02-28T05:56:28;3.93;;;3.63;;
4933;SDS011;2482;49.154;8.254;2023-02-28T05:58:56;5.70;;;4.60;;
4933;SDS011;2482;49.154;8.254;2023-02-28T06:03:58;3.77;;;3.47;;
4933;SDS011;2482;49.154;8.254;2023-02-28T06:06:27;4.20;;;3.60;;
4933;SDS011;2482;49.154;8.254;2023-02-28T06:08:55;5.03;;;4.23;;
4933;SDS011;2482;49.154;8.254;2023-02-28T06:11:23;5.30;;;4.00;;
4933;SDS011;2482;49.154;8.254;2023-02-28T06:13:54;5.70;;;3.93;;
4933;SDS011;2482;49.154;8.254;2023-02-28T06:16:27;4.20;;;3.80;;
4933;SDS011;2482;49.154;8.254;2023-02-28T06:19:00;6.13;;;4.10;;
4933;SDS011;2482;49.154;8.254;2023-02-28T06:21:29;5.00;;;3.70;;
4933;SDS011;2482;49.154;8.254;2023-02-28T06:23:57;4.20;;;3.80;;
4933;SDS011;2482;49.154;8.254;2023-02-28T06:26:25;5.33;;;4.03;;
4933;SDS011;2482;49.154;8.254;2023-02-28T06:28:52;6.07;;;4.03;;
4933;SDS011;2482;49.154;8.254;2023-02-28T06:31:20;4.60;;;3.93;;
4933;SDS011;2482;49.154;8.254;2023-02-28T06:33:48;5.90;;;4.03;;
4933;SDS011;2482;49.154;8.254;2023-02-28T06:36:16;5.70;;;4.40;;
4933;SDS011;2482;49.154;8.254;2023-02-28T06:38:44;5.67;;;4.07;;
4933;SDS011;2482;49.154;8.254;2023-02-28T06:41:11;5.10;;;3.97;;
4933;SDS011;2482;49.154;8.254;2023-02-28T06:43:39;7.73;;;4.83;;
4933;SDS011;2482;49.154;8.254;2023-02-28T06:46:09;4.70;;;3.97;;
4933;SDS011;2482;49.154;8.254;2023-02-28T06:48:40;6.77;;;4.20;;
4933;SDS011;2482;49.154;8.254;2023-02-28T06:51:09;6.70;;;3.87;;
4933;SDS011;2482;49.154;8.254;2023-02-28T06:53:42;5.50;;;4.77;;
4933;SDS011;2482;49.154;8.254;2023-02-28T06:56:11;6.33;;;4.13;;
4933;SDS011;2482;49.154;8.254;2023-02-28T06:58:40;5.33;;;3.80;;
4933;SDS011;2482;49.154;8.254;2023-02-28T07:01:07;4.70;;;3.60;;
4933;SDS011;2482;49.154;8.254;2023-02-28T07:03:35;8.33;;;4.60;;
4933;SDS011;2482;49.154;8.254;2023-02-28T07:06:02;4.20;;;3.80;;
4933;SDS011;2482;49.154;8.254;2023-02-28T07:08:31;4.80;;;4.10;;
4933;SDS011;2482;49.154;8.254;2023-02-28T07:11:00;5.03;;;4.30;;
4933;SDS011;2482;49.154;8.254;2023-02-28T07:13:27;7.10;;;4.17;;
4933;SDS011;2482;49.154;8.254;2023-02-28T07:15:58;6.17;;;4.27;;
4933;SDS011;2482;49.154;8.254;2023-02-28T07:18:28;6.13;;;3.73;;
4933;SDS011;2482;49.154;8.254;2023-02-28T07:20:55;6.10;;;4.30;;
4933;SDS011;2482;49.154;8.254;2023-02-28T07:23:22;4.93;;;3.87;;
4933;SDS011;2482;49.154;8.254;2023-02-28T07:25:50;6.50;;;4.07;;
4933;SDS011;2482;49.154;8.254;2023-02-28T07:28:18;3.90;;;3.60;;
4933;SDS011;2482;49.154;8.254;2023-02-28T07:30:45;5.83;;;4.23;;
4933;SDS011;2482;49.154;8.254;2023-02-28T07:33:12;6.67;;;4.20;;
4933;SDS011;2482;49.154;8.254;2023-02-28T07:35:39;4.30;;;3.90;;
4933;SDS011;2482;49.154;8.254;2023-02-28T07:38:06;4.70;;;3.87;;
4933;SDS011;2482;49.154;8.254;2023-02-28T07:40:35;5.30;;;3.80;;
4933;SDS011;2482;49.154;8.254;2023-02-28T07:43:03;5.17;;;3.77;;
4933;SDS011;2482;49.154;8.254;2023-02-28T07:45:30;10.03;;;4.60;;
4933;SDS011;2482;49.154;8.254;2023-02-28T07:48:00;5.50;;;4.53;;
4933;SDS011;2482;49.154;8.254;2023-02-28T07:50:27;6.27;;;5.00;;
4933;SDS011;2482;49.154;8.254;2023-02-28T07:52:58;6.77;;;5.20;;
4933;SDS011;2482;49.154;8.254;2023-02-28T07:55:25;9.30;;;4.67;;
4933;SDS011;2482;49.154;8.254;2023-02-28T07:57:53;7.90;;;5.63;;
4933;SDS011;2482;49.154;8.254;2023-02-28T08:00:20;7.67;;;5.30;;
4933;SDS011;2482;49.154;8.254;2023-02-28T08:02:48;5.77;;;5.10;;
4933;SDS011;2482;49.154;8.254;2023-02-28T08:05:15;5.83;;;5.33;;
4933;SDS011;2482;49.154;8.254;2023-02-28T08:07:45;8.10;;;5.17;;
4933;SDS011;2482;49.154;8.254;2023-02-28T08:10:13;9.70;;;4.57;;
4933;SDS011;2482;49.154;8.254;2023-02-28T08:12:41;7.70;;;5.80;;
4933;SDS011;2482;49.154;8.254;2023-02-28T08:15:08;8.93;;;5.47;;
4933;SDS011;2482;49.154;8.254;2023-02-28T08:17:35;6.60;;;5.20;;
4933;SDS011;2482;49.154;8.254;2023-02-28T08:20:02;6.50;;;5.10;;
4933;SDS011;2482;49.154;8.254;2023-02-28T08:22:30;5.43;;;4.73;;
4933;SDS011;2482;49.154;8.254;2023-02-28T08:24:57;5.40;;;4.70;;
4933;SDS011;2482;49.154;8.254;2023-02-28T08:27:24;6.70;;;5.47;;
4933;SDS011;2482;49.154;8.254;2023-02-28T08:29:51;4.93;;;4.30;;
4933;SDS011;2482;49.154;8.254;2023-02-28T08:32:18;6.37;;;5.20;;
4933;SDS011;2482;49.154;8.254;2023-02-28T08:34:55;6.53;;;4.60;;
4933;SDS011;2482;49.154;8.254;2023-02-28T08:37:22;6.43;;;5.47;;
4933;SDS011;2482;49.154;8.254;2023-02-28T08:39:49;5.60;;;4.83;;
4933;SDS011;2482;49.154;8.254;2023-02-28T08:42:19;6.93;;;5.30;;
4933;SDS011;2482;49.154;8.254;2023-02-28T08:44:46;8.03;;;5.97;;
4933;SDS011;2482;49.154;8.254;2023-02-28T08:47:13;8.77;;;6.07;;
4933;SDS011;2482;49.154;8.254;2023-02-28T08:49:40;7.33;;;5.90;;
4933;SDS011;2482;49.154;8.254;2023-02-28T08:52:07;7.50;;;5.33;;
4933;SDS011;2482;49.154;8.254;2023-02-28T08:54:35;8.80;;;5.93;;
4933;SDS011;2482;49.154;8.254;2023-02-28T08:57:02;8.90;;;5.40;;
4933;SDS011;2482;49.154;8.254;2023-02-28T08:59:30;7.37;;;5.63;;
4933;SDS011;2482;49.154;8.254;2023-02-28T09:01:57;6.43;;;5.30;;
4933;SDS011;2482;49.154;8.254;2023-02-28T09:04:24;6.73;;;5.03;;
4933;SDS011;2482;49.154;8.254;2023-02-28T09:06:51;6.30;;;5.50;;
4933;SDS011;2482;49.154;8.254;2023-02-28T09:09:18;7.27;;;5.67;;
4933;SDS011;2482;49.154;8.254;2023-02-28T09:11:45;7.50;;;4.53;;
4933;SDS011;2482;49.154;8.254;2023-02-28T09:14:12;6.90;;;5.40;;
4933;SDS011;2482;49.154;8.254;2023-02-28T09:16:39;7.83;;;5.37;;
4933;SDS011;2482;49.154;8.254;2023-02-28T09:19:06;9.33;;;5.03;;
4933;SDS011;2482;49.154;8.254;2023-02-28T09:21:38;7.30;;;5.40;;
4933;SDS011;2482;49.154;8.254;2023-02-28T09:24:05;7.63;;;5.10;;
4933;SDS011;2482;49.154;8.254;2023-02-28T09:26:33;6.57;;;5.20;;
4933;SDS011;2482;49.154;8.254;2023-02-28T09:29:12;10.37;;;5.43;;
4933;SDS011;2482;49.154;8.254;2023-02-28T09:31:40;8.50;;;5.80;;
4933;SDS011;2482;49.154;8.254;2023-02-28T09:34:07;7.40;;;6.30;;
4933;SDS011;2482;49.154;8.254;2023-02-28T09:36:35;5.83;;;5.30;;
4933;SDS011;2482;49.154;8.254;2023-02-28T09:39:11;5.97;;;5.37;;
4933;SDS011;2482;49.154;8.254;2023-02-28T09:41:42;7.60;;;5.87;;
4933;SDS011;2482;49.154;8.254;2023-02-28T09:44:20;10.43;;;5.53;;
4933;SDS011;2482;49.154;8.254;2023-02-28T09:47:07;6.70;;;5.57;;
4933;SDS011;2482;49.154;8.254;2023-02-28T09:49:55;7.73;;;6.20;;
4933;SDS011;2482;49.154;8.254;2023-02-28T09:52:30;7.17;;;5.10;;
4933;SDS011;2482;49.154;8.254;2023-02-28T09:55:15;7.67;;;5.60;;
4933;SDS011;2482;49.154;8.254;2023-02-28T09:58:20;8.33;;;5.50;;
4933;SDS011;2482;49.154;8.254;2023-02-28T10:01:00;8.70;;;6.40;;
4933;SDS011;2482;49.154;8.254;2023-02-28T10:03:40;6.70;;;6.00;;
4933;SDS011;2482;49.154;8.254;2023-02-28T10:06:17;7.00;;;5.20;;
4933;SDS011;2482;49.154;8.254;2023-02-28T10:11:35;7.10;;;5.67;;
4933;SDS011;2482;49.154;8.254;2023-02-28T10:14:05;6.50;;;5.30;;
4933;SDS011;2482;49.154;8.254;2023-02-28T10:16:42;7.57;;;5.40;;
4933;SDS011;2482;49.154;8.254;2023-02-28T10:22:35;8.57;;;6.07;;
4933;SDS011;2482;49.154;8.254;2023-02-28T10:25:44;8.50;;;6.00;;
4933;SDS011;2482;49.154;8.254;2023-02-28T10:30:34;6.83;;;5.43;;
4933;SDS011;2482;49.154;8.254;2023-02-28T10:33:22;7.83;;;5.70;;
4933;SDS011;2482;49.154;8.254;2023-02-28T10:35:58;8.90;;;5.97;;
4933;SDS011;2482;49.154;8.254;2023-02-28T10:38:32;7.20;;;5.70;;
4933;SDS011;2482;49.154;8.254;2023-02-28T10:41:48;7.10;;;6.30;;
4933;SDS011;2482;49.154;8.254;2023-02-28T10:44:16;10.20;;;6.97;;
4933;SDS011;2482;49.154;8.254;2023-02-28T10:46:49;7.97;;;6.20;;
4933;SDS011;2482;49.154;8.254;2023-02-28T10:49:21;8.40;;;6.17;;
4933;SDS011;2482;49.154;8.254;2023-02-28T10:51:54;9.73;;;6.37;;
4933;SDS011;2482;49.154;8.254;2023-02-28T10:54:27;10.90;;;6.10;;
4933;SDS011;2482;49.154;8.254;2023-02-28T10:57:11;8.00;;;5.60;;
4933;SDS011;2482;49.154;8.254;2023-02-28T10:59:51;7.80;;;5.80;;
4933;SDS011;2482;49.154;8.254;2023-02-28T11:02:29;13.60;;;6.80;;
4933;SDS011;2482;49.154;8.254;2023-02-28T11:05:24;9.07;;;5.40;;
4933;SDS011;2482;49.154;8.254;2023-02-28T11:08:14;8.23;;;6.43;;
4933;SDS011;2482;49.154;8.254;2023-02-28T11:10:44;9.93;;;6.50;;
4933;SDS011;2482;49.154;8.254;2023-02-28T11:15:50;7.00;;;6.10;;
4933;SDS011;2482;49.154;8.254;2023-02-28T11:21:05;8.07;;;5.60;;
4933;SDS011;2482;49.154;8.254;2023-02-28T11:23:34;7.10;;;5.60;;
4933;SDS011;2482;49.154;8.254;2023-02-28T11:26:03;7.77;;;6.23;;
4933;SDS011;2482;49.154;8.254;2023-02-28T11:28:35;10.10;;;7.03;;
4933;SDS011;2482;49.154;8.254;2023-02-28T11:36:23;6.83;;;5.93;;
4933;SDS011;2482;49.154;8.254;2023-02-28T11:38:57;10.00;;;6.60;;
4933;SDS011;2482;49.154;8.254;2023-02-28T11:47:04;8.07;;;6.00;;
4933;SDS011;2482;49.154;8.254;2023-02-28T11:49:45;7.20;;;5.47;;
4933;SDS011;2482;49.154;8.254;2023-02-28T11:53:00;9.70;;;6.77;;
4933;SDS011;2482;49.154;8.254;2023-02-28T11:55:48;9.23;;;6.23;;
4933;SDS011;2482;49.154;8.254;2023-02-28T12:07:59;6.47;;;5.50;;
4933;SDS011;2482;49.154;8.254;2023-02-28T12:19:09;7.20;;;6.00;;
4933;SDS011;2482;49.154;8.254;2023-02-28T12:22:09;11.40;;;6.63;;
4933;SDS011;2482;49.154;8.254;2023-02-28T12:27:33;9.00;;;7.07;;
4933;SDS011;2482;49.154;8.254;2023-02-28T12:30:05;10.57;;;6.80;;
4933;SDS011;2482;49.154;8.254;2023-02-28T12:38:19;6.37;;;5.63;;
4933;SDS011;2482;49.154;8.254;2023-02-28T12:41:05;8.60;;;6.50;;
4933;SDS011;2482;49.154;8.254;2023-02-28T12:43:44;8.00;;;6.83;;
4933;SDS011;2482;49.154;8.254;2023-02-28T12:46:23;8.73;;;6.10;;
4933;SDS011;2482;49.154;8.254;2023-02-28T12:49:15;9.70;;;6.93;;
4933;SDS011;2482;49.154;8.254;2023-02-28T12:52:00;7.83;;;6.20;;
4933;SDS011;2482;49.154;8.254;2023-02-28T12:54:34;8.57;;;6.93;;
4933;SDS011;2482;49.154;8.254;2023-02-28T13:00:17;8.90;;;6.63;;
4933;SDS011;2482;49.154;8.254;2023-02-28T13:11:33;8.40;;;6.93;;
4933;SDS011;2482;49.154;8.254;2023-02-28T13:14:29;10.60;;;6.63;;
4933;SDS011;2482;49.154;8.254;2023-02-28T13:19:44;8.03;;;6.90;;
4933;SDS011;2482;49.154;8.254;2023-02-28T13:28:01;7.00;;;6.13;;
4933;SDS011;2482;49.154;8.254;2023-02-28T13:33:25;11.80;;;7.53;;
4933;SDS011;2482;49.154;8.254;2023-02-28T13:36:08;8.03;;;7.10;;
4933;SDS011;2482;49.154;8.254;2023-02-28T13:38:48;8.03;;;7.00;;
4933;SDS011;2482;49.154;8.254;2023-02-28T13:44:04;8.47;;;6.83;;
4933;SDS011;2482;49.154;8.254;2023-02-28T13:52:07;8.33;;;7.20;;
4933;SDS011;2482;49.154;8.254;2023-02-28T13:54:51;13.00;;;8.13;;
4933;SDS011;2482;49.154;8.254;2023-02-28T14:08:59;9.50;;;7.47;;
4933;SDS011;2482;49.154;8.254;2023-02-28T14:11:42;8.20;;;7.37;;
4933;SDS011;2482;49.154;8.254;2023-02-28T14:17:01;9.10;;;6.87;;
4933;SDS011;2482;49.154;8.254;2023-02-28T14:19:32;8.23;;;7.27;;
4933;SDS011;2482;49.154;8.254;2023-02-28T14:28:55;8.17;;;7.37;;
4933;SDS011;2482;49.154;8.254;2023-02-28T14:31:45;11.00;;;8.53;;
4933;SDS011;2482;49.154;8.254;2023-02-28T14:34:35;10.90;;;8.10;;
4933;SDS011;2482;49.154;8.254;2023-02-28T14:37:33;12.37;;;8.73;;
4933;SDS011;2482;49.154;8.254;2023-02-28T14:40:11;11.40;;;7.80;;
4933;SDS011;2482;49.154;8.254;2023-02-28T14:42:54;9.63;;;7.90;;
4933;SDS011;2482;49.154;8.254;2023-02-28T14:45:31;14.17;;;9.70;;
4933;SDS011;2482;49.154;8.254;2023-02-28T14:48:01;8.40;;;7.30;;
4933;SDS011;2482;49.154;8.254;2023-02-28T14:50:31;11.77;;;7.63;;
4933;SDS011;2482;49.154;8.254;2023-02-28T14:53:03;10.53;;;7.57;;
4933;SDS011;2482;49.154;8.254;2023-02-28T14:55:35;10.80;;;8.37;;
4933;SDS011;2482;49.154;8.254;2023-02-28T14:58:04;10.20;;;7.27;;
4933;SDS011;2482;49.154;8.254;2023-02-28T15:00:48;11.10;;;7.70;;
4933;SDS011;2482;49.154;8.254;2023-02-28T15:06:06;11.57;;;8.20;;
4933;SDS011;2482;49.154;8.254;2023-02-28T15:08:44;9.43;;;7.30;;
4933;SDS011;2482;49.154;8.254;2023-02-28T15:11:16;9.57;;;8.30;;
4933;SDS011;2482;49.154;8.254;2023-02-28T15:16:22;8.93;;;7.33;;
4933;SDS011;2482;49.154;8.254;2023-02-28T15:19:02;8.83;;;6.83;;
4933;SDS011;2482;49.154;8.254;2023-02-28T15:21:40;8.67;;;7.50;;
4933;SDS011;2482;49.154;8.254;2023-02-28T15:26:55;9.57;;;7.27;;
4933;SDS011;2482;49.154;8.254;2023-02-28T15:29:26;8.27;;;6.73;;
4933;SDS011;2482;49.154;8.254;2023-02-28T15:31:56;9.80;;;6.97;;
4933;SDS011;2482;49.154;8.254;2023-02-28T15:34:39;8.47;;;6.57;;
4933;SDS011;2482;49.154;8.254;2023-02-28T15:40:45;11.60;;;8.07;;
4933;SDS011;2482;49.154;8.254;2023-02-28T15:43:37;11.93;;;8.00;;
4933;SDS011;2482;49.154;8.254;2023-02-28T15:45:58;8.70;;;6.77;;
4933;SDS011;2482;49.154;8.254;2023-02-28T15:51:18;8.80;;;7.07;;
4933;SDS011;2482;49.154;8.254;2023-02-28T15:53:58;9.63;;;7.40;;
4933;SDS011;2482;49.154;8.254;2023-02-28T15:59:06;7.60;;;6.20;;
4933;SDS011;2482;49.154;8.254;2023-02-28T16:01:40;10.90;;;7.60;;
4933;SDS011;2482;49.154;8.254;2023-02-28T16:04:18;9.13;;;6.90;;
4933;SDS011;2482;49.154;8.254;2023-02-28T16:06:46;9.00;;;7.17;;
4933;SDS011;2482;49.154;8.254;2023-02-28T16:09:31;9.57;;;8.10;;
4933;SDS011;2482;49.154;8.254;2023-02-28T16:12:00;9.03;;;7.67;;
4933;SDS011;2482;49.154;8.254;2023-02-28T16:14:29;10.50;;;7.80;;
4933;SDS011;2482;49.154;8.254;2023-02-28T16:17:02;11.03;;;7.90;;
4933;SDS011;2482;49.154;8.254;2023-02-28T16:19:32;10.80;;;7.70;;
4933;SDS011;2482;49.154;8.254;2023-02-28T16:22:00;10.83;;;8.53;;
4933;SDS011;2482;49.154;8.254;2023-02-28T16:24:27;9.80;;;7.73;;
4933;SDS011;2482;49.154;8.254;2023-02-28T16:26:54;12.03;;;8.77;;
4933;SDS011;2482;49.154;8.254;2023-02-28T16:29:24;9.50;;;7.87;;
4933;SDS011;2482;49.154;8.254;2023-02-28T16:32:00;10.90;;;8.40;;
4933;SDS011;2482;49.154;8.254;2023-02-28T16:34:30;10.90;;;8.27;;
4933;SDS011;2482;49.154;8.254;2023-02-28T16:36:57;8.70;;;7.40;;
4933;SDS011;2482;49.154;8.254;2023-02-28T16:39:26;10.07;;;7.80;;
4933;SDS011;2482;49.154;8.254;2023-02-28T16:41:55;11.13;;;8.43;;
4933;SDS011;2482;49.154;8.254;2023-02-28T16:44:32;10.40;;;8.67;;
4933;SDS011;2482;49.154;8.254;2023-02-28T16:47:01;10.00;;;7.93;;
4933;SDS011;2482;49.154;8.254;2023-02-28T16:49:30;13.80;;;8.70;;
4933;SDS011;2482;49.154;8.254;2023-02-28T16:51:57;10.90;;;8.20;;
4933;SDS011;2482;49.154;8.254;2023-02-28T16:54:24;10.70;;;7.93;;
4933;SDS011;2482;49.154;8.254;2023-02-28T16:56:51;12.10;;;7.80;;
4933;SDS011;2482;49.154;8.254;2023-02-28T16:59:19;9.90;;;7.77;;
4933;SDS011;2482;49.154;8.254;2023-02-28T17:01:53;12.90;;;8.10;;
4933;SDS011;2482;49.154;8.254;2023-02-28T17:04:24;10.47;;;7.57;;
4933;SDS011;2482;49.154;8.254;2023-02-28T17:06:52;9.13;;;7.00;;
4933;SDS011;2482;49.154;8.254;2023-02-28T17:09:20;10.40;;;7.63;;
4933;SDS011;2482;49.154;8.254;2023-02-28T17:11:53;10.23;;;7.30;;
4933;SDS011;2482;49.154;8.254;2023-02-28T17:14:20;9.00;;;7.17;;
4933;SDS011;2482;49.154;8.254;2023-02-28T17:16:49;16.30;;;8.30;;
4933;SDS011;2482;49.154;8.254;2023-02-28T17:19:16;9.70;;;7.63;;
4933;SDS011;2482;49.154;8.254;2023-02-28T17:21:44;16.13;;;7.87;;
4933;SDS011;2482;49.154;8.254;2023-02-28T17:24:12;10.37;;;6.80;;
4933;SDS011;2482;49.154;8.254;2023-02-28T17:26:44;9.03;;;7.47;;
4933;SDS011;2482;49.154;8.254;2023-02-28T17:29:15;19.57;;;8.80;;
4933;SDS011;2482;49.154;8.254;2023-02-28T17:31:46;10.10;;;7.40;;
4933;SDS011;2482;49.154;8.254;2023-02-28T17:34:14;9.37;;;7.60;;
4933;SDS011;2482;49.154;8.254;2023-02-28T17:36:45;15.63;;;7.67;;
4933;SDS011;2482;49.154;8.254;2023-02-28T17:39:14;9.83;;;7.10;;
4933;SDS011;2482;49.154;8.254;2023-02-28T17:41:50;9.03;;;7.17;;
4933;SDS011;2482;49.154;8.254;2023-02-28T17:44:23;10.53;;;7.13;;
4933;SDS011;2482;49.154;8.254;2023-02-28T17:46:51;12.03;;;7.77;;
4933;SDS011;2482;49.154;8.254;2023-02-28T17:49:21;10.17;;;7.43;;
4933;SDS011;2482;49.154;8.254;2023-02-28T17:51:48;9.83;;;7.20;;
4933;SDS011;2482;49.154;8.254;2023-02-28T17:54:16;10.63;;;7.83;;
4933;SDS011;2482;49.154;8.254;2023-02-28T17:56:44;9.50;;;7.50;;
4933;SDS011;2482;49.154;8.254;2023-02-28T17:59:12;10.67;;;7.03;;
4933;SDS011;2482;49.154;8.254;2023-02-28T18:01:39;9.40;;;7.30;;
4933;SDS011;2482;49.154;8.254;2023-02-28T18:04:07;9.53;;;7.33;;
4933;SDS011;2482;49.154;8.254;2023-02-28T18:06:35;10.50;;;7.70;;
4933;SDS011;2482;49.154;8.254;2023-02-28T18:09:14;11.73;;;6.70;;
4933;SDS011;2482;49.154;8.254;2023-02-28T18:11:43;10.83;;;7.20;;
4933;SDS011;2482;49.154;8.254;2023-02-28T18:14:14;10.13;;;6.97;;
4933;SDS011;2482;49.154;8.254;2023-02-28T18:16:43;10.80;;;7.70;;
4933;SDS011;2482;49.154;8.254;2023-02-28T18:19:11;10.73;;;7.30;;
4933;SDS011;2482;49.154;8.254;2023-02-28T18:21:44;9.40;;;7.50;;